Time;durP1;ratioP1;P1;durP2;ratioP2;P2;SDS_P1;SDS_P2;PMS_P1;PMS_P2;Temp;Humidity;BMP_temperature;BMP_pressure;BME280_temperature;BME280_humidity;BME280_pressure;Samples;Min_cycle;Max_cycle;Signal;HPM_P1;HPM_P2
2022/09/04 00:01:04;;;;;;;;;;;16.80;99.90;;;;;;5004030;28;19948;-65
2022/09/04 00:03:38;;;;;;;;;;;16.80;99.90;;;;;;5008966;28;19925;-65
2022/09/04 00:06:09;;;;;;;;;;;16.70;99.90;;;;;;5007173;28;19930;-65
2022/09/04 00:08:41;;;;;;;;;;;16.70;99.90;;;;;;5024316;28;19987;-65
2022/09/04 00:11:12;;;;;;;;;;;16.70;99.90;;;;;;5023132;28;19929;-65
2022/09/04 00:13:42;;;;;;;;;;;16.60;99.90;;;;;;5017963;28;19932;-64
2022/09/04 00:16:11;;;;;;;;;;;16.60;99.90;;;;;;5016334;28;20381;-65
2022/09/04 00:18:41;;;;;;;;;;;16.50;99.90;;;;;;5014471;28;20396;-65
2022/09/04 00:21:13;;;;;;;;;;;16.50;99.90;;;;;;5023343;28;19996;-65
2022/09/04 00:23:43;;;;;;;;;;;16.30;99.90;;;;;;5016807;28;19929;-65
2022/09/04 00:26:12;;;;;;;;;;;16.30;99.90;;;;;;5021933;28;19925;-65
2022/09/04 00:28:41;;;;;;;;;;;16.30;99.90;;;;;;5019344;28;19925;-65
2022/09/04 00:31:14;;;;;;;;;;;16.30;99.90;;;;;;5018906;28;20000;-65
2022/09/04 00:33:46;;;;;;;;;;;16.30;99.90;;;;;;5023070;28;19987;-65
2022/09/04 00:36:16;;;;;;;;;;;16.40;99.90;;;;;;5022517;28;19980;-65
2022/09/04 00:38:44;;;;;;;;;;;16.40;99.90;;;;;;5024286;28;19925;-65
2022/09/04 00:41:15;;;;;;;;;;;16.40;99.90;;;;;;5024793;28;19925;-65
2022/09/04 00:44:07;;;;;;;;;;;16.30;99.90;;;;;;5014375;28;20373;-65
2022/09/04 00:46:57;;;;;;;;;;;16.30;99.90;;;;;;5002760;28;19941;-65
2022/09/04 00:49:48;;;;;;;;;;;16.20;99.90;;;;;;5016628;28;19925;-67
2022/09/04 00:52:25;;;;;;;;;;;16.20;99.90;;;;;;4959774;28;19926;-65
2022/09/04 00:55:01;;;;;;;;;;;16.20;99.90;;;;;;5017512;28;19933;-65
2022/09/04 00:57:51;;;;;;;;;;;16.20;99.90;;;;;;5025786;28;20393;-65
2022/09/04 01:00:18;;;;;;;;;;;16.20;99.90;;;;;;5032133;28;19979;-65
2022/09/04 01:02:57;;;;;;;;;;;16.30;99.90;;;;;;5019301;28;19925;-65
2022/09/04 01:05:30;;;;;;;;;;;16.30;99.90;;;;;;5019986;28;19960;-65
2022/09/04 01:08:03;;;;;;;;;;;16.30;99.90;;;;;;5014165;28;20411;-65
2022/09/04 01:10:39;;;;;;;;;;;16.30;99.90;;;;;;5015953;28;20510;-65
2022/09/04 01:13:09;;;;;;;;;;;16.30;99.90;;;;;;5013707;28;19936;-65
2022/09/04 01:15:40;;;;;;;;;;;16.20;99.90;;;;;;5015616;28;19929;-65
2022/09/04 01:18:09;;;;;;;;;;;16.10;99.90;;;;;;5026090;28;20015;-65
2022/09/04 01:20:45;;;;;;;;;;;16.20;99.90;;;;;;5018512;28;20303;-65
2022/09/04 01:23:29;;;;;;;;;;;16.30;99.90;;;;;;5029608;28;19925;-65
2022/09/04 01:26:00;;;;;;;;;;;16.30;99.90;;;;;;5017751;28;20016;-65
2022/09/04 01:28:29;;;;;;;;;;;16.30;99.90;;;;;;5020763;28;19925;-65
2022/09/04 01:31:00;;;;;;;;;;;16.20;99.90;;;;;;5017584;28;19971;-65
2022/09/04 01:33:30;;;;;;;;;;;16.20;99.90;;;;;;5017075;28;19929;-65
2022/09/04 01:36:02;;;;;;;;;;;16.20;99.90;;;;;;5026106;28;19925;-65
2022/09/04 01:38:33;;;;;;;;;;;16.30;99.90;;;;;;5012157;28;19925;-65
2022/09/04 01:41:06;;;;;;;;;;;16.30;99.90;;;;;;5020468;28;19975;-65
2022/09/04 01:43:33;;;;;;;;;;;16.30;99.90;;;;;;5027184;28;20401;-65
2022/09/04 01:46:20;;;;;;;;;;;16.30;99.90;;;;;;5020564;28;20370;-65
2022/09/04 01:48:50;;;;;;;;;;;16.30;99.90;;;;;;5027879;28;19925;-65
2022/09/04 01:51:21;;;;;;;;;;;16.30;99.90;;;;;;5028163;28;19959;-65
2022/09/04 01:53:53;;;;;;;;;;;16.30;99.90;;;;;;5023230;28;19932;-65
2022/09/04 01:56:29;;;;;;;;;;;16.30;99.90;;;;;;5025323;28;19991;-65
2022/09/04 01:58:57;;;;;;;;;;;16.30;99.90;;;;;;5028774;28;19925;-65
2022/09/04 02:01:30;;;;;;;;;;;16.30;99.90;;;;;;5028402;28;20462;-65
2022/09/04 02:04:00;;;;;;;;;;;16.30;99.90;;;;;;5025014;28;20404;-65
2022/09/04 02:06:31;;;;;;;;;;;16.20;99.90;;;;;;5025485;28;19925;-65
2022/09/04 02:09:07;;;;;;;;;;;16.20;99.90;;;;;;5025190;28;20422;-65
2022/09/04 02:11:35;;;;;;;;;;;16.20;99.90;;;;;;5025405;28;19925;-65
2022/09/04 02:14:07;;;;;;;;;;;16.20;99.90;;;;;;5025121;28;19925;-65
2022/09/04 02:16:37;;;;;;;;;;;16.20;99.90;;;;;;5029388;28;19925;-65
2022/09/04 02:19:08;;;;;;;;;;;16.30;99.90;;;;;;5025142;28;19925;-65
2022/09/04 02:21:36;;;;;;;;;;;16.30;99.90;;;;;;5031179;28;19932;-65
2022/09/04 02:24:06;;;;;;;;;;;16.20;99.90;;;;;;5023324;28;19983;-65
2022/09/04 02:26:37;;;;;;;;;;;16.20;99.90;;;;;;5025216;28;19936;-65
2022/09/04 02:29:06;;;;;;;;;;;16.20;99.90;;;;;;5021051;28;20459;-64
2022/09/04 02:31:37;;;;;;;;;;;16.20;99.90;;;;;;5018374;28;19933;-65
2022/09/04 02:34:07;;;;;;;;;;;16.20;99.90;;;;;;5021818;28;19932;-65
2022/09/04 02:36:36;;;;;;;;;;;16.20;99.90;;;;;;5027727;28;20344;-65
2022/09/04 02:39:08;;;;;;;;;;;16.20;99.90;;;;;;5016171;28;20397;-65
2022/09/04 02:41:41;;;;;;;;;;;16.20;99.90;;;;;;5025169;28;19983;-65
2022/09/04 02:44:13;;;;;;;;;;;16.20;99.90;;;;;;5024621;28;19925;-65
2022/09/04 02:46:44;;;;;;;;;;;16.20;99.90;;;;;;5020722;28;20385;-65
2022/09/04 02:49:15;;;;;;;;;;;16.20;99.90;;;;;;5024078;28;19925;-65
2022/09/04 02:51:49;;;;;;;;;;;16.20;99.90;;;;;;5025848;28;19925;-65
2022/09/04 02:54:19;;;;;;;;;;;16.20;99.90;;;;;;5024908;28;19925;-65
2022/09/04 02:56:52;;;;;;;;;;;16.20;99.90;;;;;;5023292;28;19925;-65
2022/09/04 02:59:30;;;;;;;;;;;16.20;99.90;;;;;;5016281;28;19934;-65
2022/09/04 03:01:58;;;;;;;;;;;16.10;99.90;;;;;;5017860;28;19932;-65
2022/09/04 03:04:30;;;;;;;;;;;16.10;99.90;;;;;;5021293;28;20418;-65
2022/09/04 03:07:01;;;;;;;;;;;16.00;99.90;;;;;;5024760;28;19925;-65
2022/09/04 03:09:29;;;;;;;;;;;15.90;99.90;;;;;;5013965;28;19925;-65
2022/09/04 03:12:00;;;;;;;;;;;15.90;99.90;;;;;;5018864;28;19925;-65
2022/09/04 03:14:33;;;;;;;;;;;16.00;99.90;;;;;;5021687;28;20380;-65
2022/09/04 03:17:05;;;;;;;;;;;16.00;99.90;;;;;;5024383;28;20412;-65
2022/09/04 03:19:36;;;;;;;;;;;16.00;99.90;;;;;;5013139;28;19925;-65
2022/09/04 03:22:06;;;;;;;;;;;16.00;99.90;;;;;;5008854;28;20308;-65
2022/09/04 03:24:35;;;;;;;;;;;16.00;99.90;;;;;;5024561;28;19925;-65
2022/09/04 03:27:05;;;;;;;;;;;16.00;99.90;;;;;;5019658;28;19932;-65
2022/09/04 03:29:36;;;;;;;;;;;16.10;99.90;;;;;;5018516;28;19933;-65
2022/09/04 03:32:10;;;;;;;;;;;16.00;99.90;;;;;;5020787;28;19925;-65
2022/09/04 03:34:41;;;;;;;;;;;16.00;99.90;;;;;;5017918;28;19925;-65
2022/09/04 03:37:15;;;;;;;;;;;16.00;99.90;;;;;;5022517;28;19929;-65
2022/09/04 03:39:46;;;;;;;;;;;16.00;99.90;;;;;;5023252;28;19929;-65
2022/09/04 03:42:20;;;;;;;;;;;16.00;99.90;;;;;;5018521;28;20282;-65
2022/09/04 03:44:54;;;;;;;;;;;16.00;99.90;;;;;;5016446;28;19925;-65
2022/09/04 03:47:29;;;;;;;;;;;15.90;99.90;;;;;;5011037;28;20356;-65
2022/09/04 03:50:03;;;;;;;;;;;15.90;99.90;;;;;;5015461;28;19925;-64
2022/09/04 03:52:33;;;;;;;;;;;15.80;99.90;;;;;;5019882;28;19925;-65
2022/09/04 03:55:09;;;;;;;;;;;15.80;99.90;;;;;;5022091;28;19925;-65
2022/09/04 03:57:44;;;;;;;;;;;15.80;99.90;;;;;;5023156;28;20381;-65
2022/09/04 04:00:14;;;;;;;;;;;15.80;99.90;;;;;;5018499;28;19926;-65
2022/09/04 04:02:47;;;;;;;;;;;15.70;99.90;;;;;;5017192;28;19925;-65
2022/09/04 04:05:22;;;;;;;;;;;15.70;99.90;;;;;;5023391;28;19925;-65
2022/09/04 04:07:54;;;;;;;;;;;15.60;99.90;;;;;;5022183;28;19945;-65
2022/09/04 04:10:29;;;;;;;;;;;15.60;99.90;;;;;;5024112;28;19929;-65
2022/09/04 04:13:07;;;;;;;;;;;15.60;99.90;;;;;;5022485;28;19947;-65
2022/09/04 04:15:44;;;;;;;;;;;15.50;99.90;;;;;;5013593;28;20355;-66
2022/09/04 04:18:38;;;;;;;;;;;15.50;99.90;;;;;;5016742;28;19939;-65
2022/09/04 04:21:09;;;;;;;;;;;15.50;99.90;;;;;;5022890;28;20057;-65
2022/09/04 04:23:47;;;;;;;;;;;15.50;99.90;;;;;;5019792;28;19935;-65
2022/09/04 04:26:16;;;;;;;;;;;15.50;99.90;;;;;;5022522;28;19932;-65
2022/09/04 04:28:58;;;;;;;;;;;15.50;99.90;;;;;;5015721;28;20317;-65
2022/09/04 04:31:33;;;;;;;;;;;15.50;99.90;;;;;;5009861;28;20445;-65
2022/09/04 04:34:03;;;;;;;;;;;15.50;99.90;;;;;;5005909;28;19925;-65
2022/09/04 04:36:35;;;;;;;;;;;15.50;99.90;;;;;;5027427;28;19925;-65
2022/09/04 04:39:10;;;;;;;;;;;15.50;99.90;;;;;;5017109;28;20345;-65
2022/09/04 04:45:48;;;;;;;;;;;15.40;99.90;;;;;;5011071;28;19928;-65
2022/09/04 04:47:23;;;;;;;;;;;15.40;99.90;;;;;;5012006;28;19925;-73
2022/09/04 04:49:57;;;;;;;;;;;15.40;99.90;;;;;;5020104;28;19971;-66
2022/09/04 04:52:27;;;;;;;;;;;15.40;99.90;;;;;;5017418;28;19933;-65
2022/09/04 04:55:09;;;;;;;;;;;15.40;99.90;;;;;;5019589;28;19971;-65
2022/09/04 04:57:40;;;;;;;;;;;15.40;99.90;;;;;;5020441;28;19929;-65
2022/09/04 05:00:18;;;;;;;;;;;15.30;99.90;;;;;;5022197;28;20312;-65
2022/09/04 05:02:50;;;;;;;;;;;15.40;99.90;;;;;;5022986;28;19929;-65
2022/09/04 05:05:21;;;;;;;;;;;15.40;99.90;;;;;;5025356;28;20324;-68
2022/09/04 05:07:52;;;;;;;;;;;15.40;99.90;;;;;;5015869;28;20404;-65
2022/09/04 05:10:22;;;;;;;;;;;15.40;99.90;;;;;;5008969;28;19925;-65
2022/09/04 05:12:59;;;;;;;;;;;15.40;99.90;;;;;;5019396;28;19925;-65
2022/09/04 05:15:29;;;;;;;;;;;15.40;99.90;;;;;;5011318;28;19940;-65
2022/09/04 05:17:58;;;;;;;;;;;15.50;99.90;;;;;;5016540;28;19929;-65
2022/09/04 05:20:28;;;;;;;;;;;15.50;99.90;;;;;;5022504;28;20393;-66
2022/09/04 05:22:59;;;;;;;;;;;15.50;99.90;;;;;;5032920;28;19940;-65
2022/09/04 05:25:32;;;;;;;;;;;15.50;99.90;;;;;;5011865;28;19929;-65
2022/09/04 05:28:05;;;;;;;;;;;15.60;99.90;;;;;;5021320;28;19925;-65
2022/09/04 05:30:40;;;;;;;;;;;15.60;99.90;;;;;;5014132;28;19925;-65
2022/09/04 05:33:13;;;;;;;;;;;15.70;99.90;;;;;;5007392;28;19961;-65
2022/09/04 05:35:43;;;;;;;;;;;15.70;99.90;;;;;;5016686;28;19929;-68
2022/09/04 05:38:13;;;;;;;;;;;15.80;99.90;;;;;;5018131;28;19975;-65
2022/09/04 05:40:49;;;;;;;;;;;15.80;99.90;;;;;;5013743;28;19929;-65
2022/09/04 05:43:22;;;;;;;;;;;15.90;99.90;;;;;;5001467;28;19957;-65
2022/09/04 05:45:57;;;;;;;;;;;15.90;99.90;;;;;;5019004;28;19929;-65
2022/09/04 05:48:25;;;;;;;;;;;16.00;99.90;;;;;;5002875;28;19925;-65
2022/09/04 05:50:57;;;;;;;;;;;16.10;99.90;;;;;;5018474;28;19926;-65
2022/09/04 05:53:34;;;;;;;;;;;16.10;99.90;;;;;;5019854;28;19925;-66
2022/09/04 05:56:14;;;;;;;;;;;16.20;99.90;;;;;;5014307;28;19925;-65
2022/09/04 05:59:05;;;;;;;;;;;16.30;99.90;;;;;;5013129;28;20352;-66
2022/09/04 06:01:48;;;;;;;;;;;16.40;99.90;;;;;;5010352;28;19925;-65
2022/09/04 06:04:32;;;;;;;;;;;16.60;99.90;;;;;;5014898;28;19928;-65
2022/09/04 06:07:09;;;;;;;;;;;16.70;99.90;;;;;;5018189;28;19925;-65
2022/09/04 06:09:44;;;;;;;;;;;16.80;99.90;;;;;;5019076;28;19929;-65
2022/09/04 06:12:24;;;;;;;;;;;16.90;99.90;;;;;;5014257;28;19925;-65
2022/09/04 06:15:11;;;;;;;;;;;17.00;99.90;;;;;;5017811;28;19925;-66
2022/09/04 06:17:47;;;;;;;;;;;17.10;99.90;;;;;;5014712;28;20395;-65
2022/09/04 06:20:19;;;;;;;;;;;17.20;99.90;;;;;;5016208;28;19964;-65
2022/09/04 06:23:01;;;;;;;;;;;17.40;99.90;;;;;;5021749;28;20403;-65
2022/09/04 06:25:42;;;;;;;;;;;17.50;99.90;;;;;;5014399;28;19925;-66
2022/09/04 06:28:27;;;;;;;;;;;17.60;99.90;;;;;;5025083;28;19928;-65
2022/09/04 06:30:58;;;;;;;;;;;17.80;99.90;;;;;;5014854;28;19933;-65
2022/09/04 06:33:33;;;;;;;;;;;18.00;99.90;;;;;;5020030;28;19925;-66
2022/09/04 06:36:05;;;;;;;;;;;18.10;99.90;;;;;;5013337;28;19929;-65
2022/09/04 06:38:39;;;;;;;;;;;18.20;99.90;;;;;;5022079;28;19979;-65
2022/09/04 06:41:15;;;;;;;;;;;18.20;99.90;;;;;;5020049;28;19960;-65
2022/09/04 06:43:47;;;;;;;;;;;18.30;99.90;;;;;;5024663;28;19979;-65
2022/09/04 06:46:19;;;;;;;;;;;18.40;99.90;;;;;;5008435;28;20021;-65
2022/09/04 06:48:52;;;;;;;;;;;18.50;99.90;;;;;;5017466;28;19930;-65
2022/09/04 06:51:23;;;;;;;;;;;18.50;99.90;;;;;;5016575;28;20331;-65
2022/09/04 06:53:55;;;;;;;;;;;18.70;99.90;;;;;;5024857;28;19972;-65
2022/09/04 06:56:28;;;;;;;;;;;18.70;99.90;;;;;;5022376;28;19960;-65
2022/09/04 06:59:03;;;;;;;;;;;18.80;99.90;;;;;;5017386;28;19925;-65
2022/09/04 07:01:39;;;;;;;;;;;18.90;99.90;;;;;;5024436;28;19925;-66
2022/09/04 07:04:13;;;;;;;;;;;19.00;99.90;;;;;;5024083;28;19925;-66
2022/09/04 07:06:47;;;;;;;;;;;19.10;99.90;;;;;;5019184;28;19929;-66
2022/09/04 07:09:19;;;;;;;;;;;19.30;99.90;;;;;;5023616;28;19932;-66
2022/09/04 07:12:00;;;;;;;;;;;19.40;99.90;;;;;;5019514;28;20013;-65
2022/09/04 07:14:42;;;;;;;;;;;19.50;99.90;;;;;;5016219;28;19929;-65
2022/09/04 07:17:14;;;;;;;;;;;19.60;99.90;;;;;;5017051;28;19925;-69
2022/09/04 07:20:00;;;;;;;;;;;19.70;99.90;;;;;;5023515;28;19999;-65
2022/09/04 07:22:42;;;;;;;;;;;19.80;99.90;;;;;;5024180;28;19933;-66
2022/09/04 07:25:13;;;;;;;;;;;19.80;99.90;;;;;;4990986;28;19929;-65
2022/09/04 07:27:44;;;;;;;;;;;20.00;99.90;;;;;;5018696;28;19975;-65
2022/09/04 07:30:12;;;;;;;;;;;20.10;99.90;;;;;;5020387;28;19925;-65
2022/09/04 07:32:42;;;;;;;;;;;20.20;99.90;;;;;;5024379;28;19925;-65
2022/09/04 07:35:13;;;;;;;;;;;20.20;99.90;;;;;;5017671;28;19925;-66
2022/09/04 07:37:43;;;;;;;;;;;20.30;99.90;;;;;;5017399;28;19933;-65
2022/09/04 07:40:13;;;;;;;;;;;20.40;99.90;;;;;;5017072;28;19979;-66
2022/09/04 07:42:45;;;;;;;;;;;20.40;99.90;;;;;;5025784;28;19971;-65
2022/09/04 07:45:21;;;;;;;;;;;20.60;99.90;;;;;;5018968;28;20300;-65
2022/09/04 07:47:54;;;;;;;;;;;20.70;99.90;;;;;;5026395;28;19940;-67
2022/09/04 07:50:23;;;;;;;;;;;20.80;99.90;;;;;;5020951;28;20017;-67
2022/09/04 07:53:05;;;;;;;;;;;20.90;99.90;;;;;;5017194;28;19928;-65
2022/09/04 07:55:40;;;;;;;;;;;21.00;99.90;;;;;;5013623;28;19975;-65
2022/09/04 07:58:22;;;;;;;;;;;21.00;99.90;;;;;;5017059;28;20199;-65
2022/09/04 08:00:57;;;;;;;;;;;21.10;99.90;;;;;;5014548;28;19925;-66
2022/09/04 08:03:37;;;;;;;;;;;21.20;99.90;;;;;;5024999;28;19925;-65
2022/09/04 08:06:12;;;;;;;;;;;21.30;99.90;;;;;;5012766;28;19925;-68
2022/09/04 08:08:48;;;;;;;;;;;21.50;99.90;;;;;;5009236;28;19936;-67
2022/09/04 08:11:39;;;;;;;;;;;21.60;99.90;;;;;;5015194;28;19932;-66
2022/09/04 08:14:19;;;;;;;;;;;21.70;99.90;;;;;;5020262;28;19925;-66
2022/09/04 08:16:55;;;;;;;;;;;21.80;99.90;;;;;;5016331;28;19933;-66
2022/09/04 08:19:31;;;;;;;;;;;21.90;99.90;;;;;;5020533;28;19975;-66
2022/09/04 08:21:58;;;;;;;;;;;22.00;99.90;;;;;;5011027;28;19930;-66
2022/09/04 08:24:39;;;;;;;;;;;22.10;99.90;;;;;;5021512;28;19925;-66
2022/09/04 08:27:12;;;;;;;;;;;22.30;99.90;;;;;;5014902;28;19925;-66
2022/09/04 08:29:45;;;;;;;;;;;22.30;99.90;;;;;;5015895;28;19957;-67
2022/09/04 08:32:18;;;;;;;;;;;22.30;99.90;;;;;;5016214;28;19932;-66
2022/09/04 08:34:54;;;;;;;;;;;22.40;99.90;;;;;;5029421;28;19933;-66
2022/09/04 08:37:24;;;;;;;;;;;22.50;99.90;;;;;;5011528;28;20355;-66
2022/09/04 08:40:00;;;;;;;;;;;22.70;99.90;;;;;;5009308;28;19929;-66
2022/09/04 08:42:41;;;;;;;;;;;22.70;99.90;;;;;;5015143;28;19928;-66
2022/09/04 08:45:21;;;;;;;;;;;22.90;99.90;;;;;;5015142;28;19960;-66
2022/09/04 08:48:11;;;;;;;;;;;23.00;99.90;;;;;;5020166;28;20316;-66
2022/09/04 08:50:44;;;;;;;;;;;23.10;99.90;;;;;;5020235;28;19925;-65
2022/09/04 08:53:38;;;;;;;;;;;23.30;99.90;;;;;;5018039;28;19925;-66
2022/09/04 08:56:17;;;;;;;;;;;23.30;99.90;;;;;;4990989;28;19948;-66
2022/09/04 08:59:05;;;;;;;;;;;23.40;99.90;;;;;;5022505;28;20417;-66
2022/09/04 09:01:56;;;;;;;;;;;23.50;99.90;;;;;;5014203;28;19925;-66
2022/09/04 09:04:35;;;;;;;;;;;23.60;99.90;;;;;;5009980;28;19925;-66
2022/09/04 09:07:21;;;;;;;;;;;23.60;99.90;;;;;;5022405;28;20393;-66
2022/09/04 09:10:00;;;;;;;;;;;23.70;99.90;;;;;;5019560;28;20404;-66
2022/09/04 09:12:54;;;;;;;;;;;23.80;99.90;;;;;;5009315;28;19925;-66
2022/09/04 09:15:36;;;;;;;;;;;24.00;99.90;;;;;;4980714;28;19979;-66
2022/09/04 09:18:11;;;;;;;;;;;24.10;99.90;;;;;;5020653;28;19932;-67
2022/09/04 09:20:45;;;;;;;;;;;24.30;99.90;;;;;;5018429;28;20435;-66
2022/09/04 09:23:16;;;;;;;;;;;24.50;99.90;;;;;;5015016;28;19941;-66
2022/09/04 09:25:48;;;;;;;;;;;24.60;99.90;;;;;;5020288;28;19947;-66
2022/09/04 09:28:47;;;;;;;;;;;24.50;99.90;;;;;;5013773;28;19933;-66
2022/09/04 09:31:33;;;;;;;;;;;24.60;99.90;;;;;;5019660;28;19928;-66
2022/09/04 09:34:13;;;;;;;;;;;24.90;99.90;;;;;;5011661;28;19932;-66
2022/09/04 09:36:51;;;;;;;;;;;25.30;99.90;;;;;;5019742;28;19932;-66
2022/09/04 09:39:29;;;;;;;;;;;25.50;99.90;;;;;;5021613;28;20121;-66
2022/09/04 09:42:01;;;;;;;;;;;25.50;99.90;;;;;;5008630;28;19933;-67
2022/09/04 09:44:50;;;;;;;;;;;25.20;99.90;;;;;;5014850;28;19928;-66
2022/09/04 09:47:31;;;;;;;;;;;25.40;99.90;;;;;;5009453;28;20308;-66
2022/09/04 09:50:25;;;;;;;;;;;25.50;99.90;;;;;;5017632;28;19936;-66
2022/09/04 09:53:12;;;;;;;;;;;25.70;99.90;;;;;;5024555;28;19925;-66
2022/09/04 09:56:07;;;;;;;;;;;25.70;99.90;;;;;;5013991;28;19956;-66
2022/09/04 09:58:44;;;;;;;;;;;25.80;99.90;;;;;;5016539;28;20019;-65
2022/09/04 10:01:18;;;;;;;;;;;25.70;99.90;;;;;;5022313;28;19939;-66
2022/09/04 10:04:00;;;;;;;;;;;25.70;99.90;;;;;;5020301;28;19925;-65
2022/09/04 10:06:58;;;;;;;;;;;25.80;99.90;;;;;;5016711;28;19925;-66
2022/09/04 10:09:39;;;;;;;;;;;26.00;99.90;;;;;;4957525;28;20358;-66
2022/09/04 10:12:25;;;;;;;;;;;26.20;99.90;;;;;;5014988;28;19925;-66
2022/09/04 10:15:01;;;;;;;;;;;26.30;99.90;;;;;;5029136;28;19925;-66
2022/09/04 10:17:52;;;;;;;;;;;26.40;99.90;;;;;;5006860;28;19965;-66
2022/09/04 10:20:45;;;;;;;;;;;26.60;99.90;;;;;;5031073;28;19975;-66
2022/09/04 10:23:22;;;;;;;;;;;26.80;99.90;;;;;;5008872;28;19925;-66
2022/09/04 10:26:16;;;;;;;;;;;26.80;99.90;;;;;;5020414;28;19932;-66
2022/09/04 10:29:08;;;;;;;;;;;26.60;99.90;;;;;;4975276;28;19925;-66
2022/09/04 10:31:45;;;;;;;;;;;26.40;99.90;;;;;;4999416;28;19925;-66
2022/09/04 10:34:27;;;;;;;;;;;26.40;99.90;;;;;;5019200;28;19925;-66
2022/09/04 10:37:01;;;;;;;;;;;26.40;99.90;;;;;;5010745;28;19932;-66
2022/09/04 10:42:26;;;;;;;;;;;26.90;99.90;;;;;;5013727;28;19925;-66
2022/09/04 10:45:03;;;;;;;;;;;27.10;99.90;;;;;;5007655;28;19930;-66
2022/09/04 10:47:37;;;;;;;;;;;27.10;99.90;;;;;;5010519;28;19925;-66
2022/09/04 10:50:13;;;;;;;;;;;27.20;99.90;;;;;;5017977;28;19933;-66
2022/09/04 10:53:00;;;;;;;;;;;27.20;99.90;;;;;;5021804;28;19929;-66
2022/09/04 10:55:35;;;;;;;;;;;27.30;99.90;;;;;;5017665;28;19925;-66
2022/09/04 10:58:16;;;;;;;;;;;27.50;99.90;;;;;;5021297;28;19988;-66
2022/09/04 11:00:53;;;;;;;;;;;27.80;99.90;;;;;;5006888;28;19933;-66
2022/09/04 11:03:28;;;;;;;;;;;27.70;99.90;;;;;;5018560;28;19929;-66
2022/09/04 11:06:16;;;;;;;;;;;27.70;99.90;;;;;;5023746;28;19925;-66
2022/09/04 11:08:50;;;;;;;;;;;27.60;99.90;;;;;;5021855;28;19925;-66
2022/09/04 11:11:22;;;;;;;;;;;27.60;99.90;;;;;;5014934;28;19925;-66
2022/09/04 11:14:07;;;;;;;;;;;27.90;99.90;;;;;;5017646;28;19928;-67
2022/09/04 11:16:52;;;;;;;;;;;28.00;99.90;;;;;;5024768;28;19925;-66
2022/09/04 11:19:49;;;;;;;;;;;28.10;99.90;;;;;;5023364;28;19929;-66
2022/09/04 11:22:34;;;;;;;;;;;28.80;99.90;;;;;;5021574;28;20458;-66
2022/09/04 11:25:25;;;;;;;;;;;29.70;99.90;;;;;;5021714;28;20494;-66
2022/09/04 11:28:12;;;;;;;;;;;29.80;99.90;;;;;;5022116;28;19952;-66
2022/09/04 11:30:51;;;;;;;;;;;31.80;99.90;;;;;;5015561;28;19925;-66
2022/09/04 11:33:37;;;;;;;;;;;34.40;99.90;;;;;;5020463;28;19976;-66
2022/09/04 11:36:28;;;;;;;;;;;34.70;99.90;;;;;;5023821;28;19933;-66
2022/09/04 11:39:17;;;;;;;;;;;35.00;99.90;;;;;;4960710;28;20402;-66
2022/09/04 11:42:00;;;;;;;;;;;35.90;99.90;;;;;;5019311;28;19925;-66
2022/09/04 11:44:38;;;;;;;;;;;35.00;99.90;;;;;;5013899;28;20392;-66
2022/09/04 11:47:22;;;;;;;;;;;34.30;99.90;;;;;;5021537;28;19987;-65
2022/09/04 11:49:58;;;;;;;;;;;34.80;99.90;;;;;;5014099;28;19925;-66
2022/09/04 11:52:30;;;;;;;;;;;33.60;99.90;;;;;;5011375;28;19925;-67
2022/09/04 11:55:15;;;;;;;;;;;33.60;99.90;;;;;;5013641;28;20329;-67
2022/09/04 11:57:50;;;;;;;;;;;32.90;99.90;;;;;;5028929;28;19925;-67
2022/09/04 12:00:17;;;;;;;;;;;34.60;99.90;;;;;;5021622;28;19925;-67
2022/09/04 12:02:59;;;;;;;;;;;37.10;99.90;;;;;;5023591;28;19926;-66
2022/09/04 12:05:39;;;;;;;;;;;35.30;99.40;;;;;;5008773;28;19929;-66
2022/09/04 12:08:20;;;;;;;;;;;32.70;99.90;;;;;;5019185;28;20423;-67
2022/09/04 12:11:01;;;;;;;;;;;31.70;99.90;;;;;;5020443;28;19925;-66
2022/09/04 12:13:36;;;;;;;;;;;31.10;99.90;;;;;;5007540;28;19925;-66
2022/09/04 12:16:18;;;;;;;;;;;32.30;99.90;;;;;;5026670;28;19925;-67
2022/09/04 12:19:04;;;;;;;;;;;32.70;99.90;;;;;;5010026;28;19925;-66
2022/09/04 12:21:51;;;;;;;;;;;31.90;99.90;;;;;;5016189;28;19936;-66
2022/09/04 12:24:36;;;;;;;;;;;33.80;99.90;;;;;;5013545;28;19925;-67
2022/09/04 12:27:13;;;;;;;;;;;36.10;98.60;;;;;;5009111;28;19932;-66
2022/09/04 12:29:50;;;;;;;;;;;37.00;98.10;;;;;;5009387;28;19933;-67
2022/09/04 12:32:34;;;;;;;;;;;35.40;97.40;;;;;;5021974;28;20312;-66
2022/09/04 12:35:22;;;;;;;;;;;34.80;97.50;;;;;;5020021;28;20400;-66
2022/09/04 12:38:12;;;;;;;;;;;33.50;97.70;;;;;;5006362;28;20452;-67
2022/09/04 12:40:44;;;;;;;;;;;33.70;97.80;;;;;;5015827;28;19925;-67
2022/09/04 12:43:21;;;;;;;;;;;35.30;98.00;;;;;;5011317;28;19925;-67
2022/09/04 12:45:53;;;;;;;;;;;37.00;97.70;;;;;;5022525;28;19924;-67
2022/09/04 12:48:26;;;;;;;;;;;38.60;96.70;;;;;;5015457;28;20392;-67
2022/09/04 12:50:56;;;;;;;;;;;39.00;96.30;;;;;;5008398;28;19925;-66
2022/09/04 12:53:44;;;;;;;;;;;36.70;95.70;;;;;;5016777;28;20024;-66
2022/09/04 12:56:14;;;;;;;;;;;34.80;95.90;;;;;;5007712;28;20304;-66
2022/09/04 12:58:58;;;;;;;;;;;34.40;96.50;;;;;;5013572;28;20288;-67
2022/09/04 13:01:30;;;;;;;;;;;34.90;95.80;;;;;;5016858;28;19925;-67
2022/09/04 13:04:05;;;;;;;;;;;35.90;95.90;;;;;;5015578;28;19963;-71
2022/09/04 13:06:36;;;;;;;;;;;36.20;95.50;;;;;;5010979;28;20304;-67
2022/09/04 13:09:10;;;;;;;;;;;36.20;95.50;;;;;;5013094;28;19933;-67
2022/09/04 13:11:43;;;;;;;;;;;35.40;95.40;;;;;;5005263;28;20485;-67
2022/09/04 13:14:22;;;;;;;;;;;34.70;95.20;;;;;;5020290;28;19933;-66
2022/09/04 13:16:55;;;;;;;;;;;33.40;95.80;;;;;;5015173;28;19972;-67
2022/09/04 13:19:27;;;;;;;;;;;33.20;96.70;;;;;;5002469;28;19925;-66
2022/09/04 13:22:00;;;;;;;;;;;33.30;96.80;;;;;;5017044;28;19952;-66
2022/09/04 13:24:34;;;;;;;;;;;33.90;96.70;;;;;;5019572;28;20450;-67
2022/09/04 13:27:15;;;;;;;;;;;33.60;96.30;;;;;;5020822;28;20377;-67
2022/09/04 13:29:53;;;;;;;;;;;34.20;96.70;;;;;;5008627;28;19925;-67
2022/09/04 13:32:38;;;;;;;;;;;34.80;95.90;;;;;;5023553;28;19953;-67
2022/09/04 13:35:12;;;;;;;;;;;35.20;95.80;;;;;;5020647;28;20462;-67
2022/09/04 13:37:44;;;;;;;;;;;36.60;95.40;;;;;;5019262;28;19948;-67
2022/09/04 13:40:17;;;;;;;;;;;38.10;94.90;;;;;;5021988;28;19932;-66
2022/09/04 13:43:03;;;;;;;;;;;39.00;94.70;;;;;;5012943;28;19925;-67
2022/09/04 13:45:33;;;;;;;;;;;39.20;94.40;;;;;;5018812;28;19932;-66
2022/09/04 13:48:03;;;;;;;;;;;39.70;94.00;;;;;;5015142;28;19926;-66
2022/09/04 13:50:32;;;;;;;;;;;40.00;93.60;;;;;;5012893;28;19971;-67
2022/09/04 13:53:01;;;;;;;;;;;40.70;93.70;;;;;;5020064;28;19967;-66
2022/09/04 13:55:31;;;;;;;;;;;41.00;93.10;;;;;;5017994;28;19931;-66
2022/09/04 13:58:01;;;;;;;;;;;40.20;92.90;;;;;;5020940;28;19926;-66
2022/09/04 14:00:30;;;;;;;;;;;39.80;93.20;;;;;;5011057;28;20269;-66
2022/09/04 14:03:00;;;;;;;;;;;39.30;93.00;;;;;;5017459;28;19925;-66
2022/09/04 14:05:28;;;;;;;;;;;39.20;93.00;;;;;;5018539;28;19925;-66
2022/09/04 14:08:01;;;;;;;;;;;39.70;92.80;;;;;;5022910;28;20499;-66
2022/09/04 14:10:33;;;;;;;;;;;40.00;92.70;;;;;;5031547;28;19932;-66
2022/09/04 14:13:05;;;;;;;;;;;40.20;92.50;;;;;;5010520;28;19925;-67
2022/09/04 14:15:39;;;;;;;;;;;39.30;92.60;;;;;;5013386;28;19924;-67
2022/09/04 14:18:15;;;;;;;;;;;38.10;92.50;;;;;;5015726;28;19925;-67
2022/09/04 14:20:48;;;;;;;;;;;37.10;92.90;;;;;;5033601;28;19936;-66
2022/09/04 14:23:21;;;;;;;;;;;35.90;93.60;;;;;;5014624;28;19979;-66
2022/09/04 14:25:53;;;;;;;;;;;35.80;93.60;;;;;;5018617;28;19971;-66
2022/09/04 14:28:23;;;;;;;;;;;35.20;93.20;;;;;;5013485;28;20019;-67
2022/09/04 14:30:56;;;;;;;;;;;35.90;93.80;;;;;;5016121;28;20333;-66
2022/09/04 14:33:27;;;;;;;;;;;36.40;93.00;;;;;;5018293;28;19975;-66
2022/09/04 14:36:01;;;;;;;;;;;36.50;93.10;;;;;;5014528;28;19925;-67
2022/09/04 14:38:48;;;;;;;;;;;36.90;92.50;;;;;;5034428;28;19925;-66
2022/09/04 14:41:22;;;;;;;;;;;37.00;92.60;;;;;;5022814;28;19925;-66
2022/09/04 14:44:02;;;;;;;;;;;37.60;92.40;;;;;;5013834;28;20401;-66
2022/09/04 14:46:31;;;;;;;;;;;37.40;92.40;;;;;;5014193;28;19960;-66
2022/09/04 14:49:02;;;;;;;;;;;37.40;92.40;;;;;;5012611;28;19932;-66
2022/09/04 14:51:34;;;;;;;;;;;36.40;92.70;;;;;;5024315;28;20304;-66
2022/09/04 14:54:01;;;;;;;;;;;36.30;92.30;;;;;;5023516;28;19929;-66
2022/09/04 14:56:31;;;;;;;;;;;35.90;92.70;;;;;;5021411;28;20016;-66
2022/09/04 14:59:01;;;;;;;;;;;36.30;92.90;;;;;;5023718;28;19940;-66
2022/09/04 15:01:31;;;;;;;;;;;36.50;92.40;;;;;;5004945;28;19925;-66
2022/09/04 15:03:59;;;;;;;;;;;37.00;92.60;;;;;;5035748;28;19925;-66
2022/09/04 15:06:29;;;;;;;;;;;37.60;92.40;;;;;;5024460;28;19945;-69
2022/09/04 15:08:57;;;;;;;;;;;37.80;92.00;;;;;;5015718;28;19940;-70
2022/09/04 15:11:29;;;;;;;;;;;37.90;92.00;;;;;;5015450;28;20003;-73